< < Back
Terminal Aerodrome Forecast


Current Version              Previous Versions:   1  2  3  4  5  6  7  8  9  

Terminal Aerodrome Forecast

796
FTUS42 KJAX 272003 AAA
TAFGNV
TAF AMD
KGNV 272003Z 2720/2818 27014G24KT P6SM SCT050
     FM272130 30014G22KT P6SM SCT050
     FM272300 31008KT P6SM FEW050
     FM280400 31003KT P6SM SKC
     FM281400 36008KT P6SM SKC=



Latest METAR

824
SAUS70 KWBC 281200 RRG
MTRGNV
METAR KGNV 281153Z 32003KT 10SM CLR 02/00 A3018 RMK AO2 SLP219 T00220000
10050 20011 53020


USA.gov is the U.S. government's official web portal to all federal, state and local government web resources and services.